Current Conditions

Updated: 24-Sep-2018 10:42 PM  
Summary / Temperature Wind Rain






Feels like: 67°F

1-hour difference
1.9°F 1.9°F colder than last hour.

24-hour difference
0.4°F0.4°F colder than yesterday at this time.

  Today Yesterday
High: 90.4°F
3:22 PM
94.1°F
3:25 PM
Low: 55.6°F
6:56 AM
57.9°F
6:32 AM
Calm W
0.0
Gust:  0.0 mph
0 Beaufort - Calm

Today: 6.0 - 9:52 AM
Month: 9.2 mph - Sep 1
Rain Today: 0.00 in
Current Rate (/hr): 0.000 in
Max Rate (/hr):
Rain Yesterday: 0.00 in
Storm Rain: 0.00 in
This Month: 0.00 in
Season Total: 6.40 in
Last Rain Event: 160 days ago
Humidity / Barometer Sun / Moon
Humidity: 68 Increased 3.0% in the last hour.
Dew Point: 55.9°F Decreased 0.6°F in the last hour.
Barometer: 29.803 inHg  
Baro Trend: Rising slowly
Sunrise: 6:46 AM
Sunset: 6:50 PM
Moonrise: 7:08 PM
Moonset: 7:12 AM
Sky Conditions UV Index
Summary: Clear
Visibility: 10 miles
Clouds: None
KVIS - 9:56 PM PDT
Current: 0.0  None 
Tuesday: 6.6  High 
Wednesday: 6.8  High 
Air Quality Fire Danger
 Moderate 
Ozone 12 ppb
PM 2.5 16 μg/m3
10:40 PM PDT
Current: 5  Low 

Local Alerts Local Forecast
Local NWS Alerts
Tonight

Clear

Low 58
Tue

Sunny

High 93
Tue night

Clear

Low 60
Wed

Sunny

High 96
Wed night

Mostly
Clear
Low 61
Thu

Mostly
Sunny
High 96
Thu night

Mostly
Clear
Low 61

Local Radar Local Satellite Neighborhood Cam Sky Cam
Local Radar Local Satellite Neighborhood Cam Sky Cam


Nearby Personal Stations

Weather Underground PWS KCAEXETE7     Weather Underground PWS KCAEXETE6     Weather Underground PWS KCAEXETE11

Nearby Airport Stations

KVIS - Visalia, California, USA
Distance from station: W 14mi, 23km
Updated: Mon, 24-Sep-2018 9:56pm PDT
Clear
Clear
 Wind from calm
Wind: Calm
Temperature: 72°F , 22°C
Dew Point: 52°F , 11°C
Humidity: 50%
Barometer: 29.83 inHg , 1010.2 hPa
Clouds: Clear
Visibility: 10 miles , 16 km
2018/09/25 04:56 KVIS 250456Z AUTO 00000KT 10SM CLR 22/11 A2983 RMK AO2 SLP105 T02170106
KPTV - Porterville, California, USA
Distance from station: SSE 19mi, 31km
Updated: Mon, 24-Sep-2018 9:56pm PDT

 Wind from WSW
Wind: WSW 6 mph , 9 km/h
Temperature: 68°F , 20°C
Dew Point: 50°F , 10°C
Humidity: 53%
Barometer: 29.84 inHg , 1010.5 hPa
Visibility: 10 miles , 16 km
2018/09/25 04:56 KPTV 250456Z AUTO 24005KT 10SM 20/10 A2984 RMK AO2 SLP112 T02000100 $

Metar display script from Saratoga-Weather.org



Visitor Map